Terminal Aerodrome Forecast
Issued by NWS

Home | Current Version | Previous Version | Graphics & Text | Print | Product List | Glossary Off
Versions: 1 2 3 4 5 6 7 8 9 10 11 12 13 14 15 16 17 18 19 20 21 22 23 24 25 26

000
FTUS43 KABR 010200 AAA
TAFATY
TAF AMD
KATY 010235Z 0103/0124 03018G25KT P6SM SCT120
     FM010800 36018G25KT 4SM -SN OVC025
     FM011600 35015KT P6SM FEW025 SCT100=

USA.gov is the U.S. government's official web portal to all federal, state and local government web resources and services.